CSAPA EDNX-EDDM
Flight info
| Callsign | CSAPA |
|---|---|
| Flight time | 0h 28m |
| Altitude | 2500 |
| Route | EDNX/07 DCT HACKERMOOS DCT EDMD DCT MUNCH DCT HOTEL1 HROUTE HOTEL2 EDDM |
| Aircraft | C152/L-V/N |
Departure
| Time | 2026-05-04 16:34 |
|---|---|
| Airport | Schleissheim Airfield (EDNX) |
Arrival
| Time | 2026-05-04 17:02 |
|---|---|
| Airport | Munich Airport (EDDM) |
| Time | Latitude | Longitude | Altitude | Speed | Heading |
|---|---|---|---|---|---|
| 2026-05-04 16:28 | 48.23643 | 11.55258 | 1599 ft | 0 kts | 25° |
| 2026-05-04 16:28 | 48.23643 | 11.55259 | 1599 ft | 0 kts | 25° |
| 2026-05-04 16:29 | 48.23673 | 11.55188 | 1599 ft | 4 kts | 349° |
| 2026-05-04 16:30 | 48.23680 | 11.55186 | 1599 ft | 0 kts | 349° |
| 2026-05-04 16:31 | 48.23722 | 11.55176 | 1599 ft | 6 kts | 0° |
| 2026-05-04 16:31 | 48.23788 | 11.55268 | 1599 ft | 5 kts | 74° |
| 2026-05-04 16:32 | 48.23814 | 11.55414 | 1599 ft | 25 kts | 75° |
| 2026-05-04 16:33 | 48.23979 | 11.56640 | 1787 ft | 71 kts | 78° |
| 2026-05-04 16:33 | 48.24233 | 11.58150 | 2098 ft | 82 kts | 76° |
| 2026-05-04 16:34 | 48.24154 | 11.59794 | 2359 ft | 95 kts | 144° |
| 2026-05-04 16:34 | 48.23516 | 11.59851 | 2468 ft | 96 kts | 207° |
| 2026-05-04 16:35 | 48.23679 | 11.57075 | 2471 ft | 104 kts | 288° |
| 2026-05-04 16:35 | 48.23455 | 11.53903 | 2460 ft | 104 kts | 255° |
| 2026-05-04 16:36 | 48.23273 | 11.52872 | 2464 ft | 103 kts | 256° |
| 2026-05-04 16:36 | 48.23360 | 11.50764 | 2435 ft | 104 kts | 300° |
| 2026-05-04 16:37 | 48.24543 | 11.49630 | 2403 ft | 105 kts | 346° |
| 2026-05-04 16:37 | 48.25248 | 11.49374 | 2420 ft | 103 kts | 347° |
| 2026-05-04 16:37 | 48.26576 | 11.49749 | 2403 ft | 105 kts | 46° |
| 2026-05-04 16:38 | 48.27763 | 11.50844 | 2400 ft | 103 kts | 0° |
| 2026-05-04 16:39 | 48.29140 | 11.48731 | 2383 ft | 104 kts | 291° |
| 2026-05-04 16:39 | 48.29662 | 11.46729 | 2383 ft | 103 kts | 291° |
| 2026-05-04 16:40 | 48.30088 | 11.44752 | 2480 ft | 97 kts | 270° |
| 2026-05-04 16:40 | 48.29475 | 11.42967 | 2529 ft | 97 kts | 218° |
| 2026-05-04 16:41 | 48.28182 | 11.42350 | 2552 ft | 101 kts | 181° |
| 2026-05-04 16:41 | 48.26054 | 11.42291 | 2532 ft | 104 kts | 180° |
| 2026-05-04 16:42 | 48.23895 | 11.42343 | 2526 ft | 103 kts | 178° |
| 2026-05-04 16:43 | 48.22458 | 11.42474 | 2518 ft | 103 kts | 175° |
| 2026-05-04 16:43 | 48.21029 | 11.42683 | 2511 ft | 103 kts | 173° |
| 2026-05-04 16:43 | 48.20316 | 11.42814 | 2510 ft | 103 kts | 173° |
| 2026-05-04 16:44 | 48.17525 | 11.43667 | 2495 ft | 103 kts | 152° |
| 2026-05-04 16:45 | 48.16425 | 11.45031 | 2495 ft | 103 kts | 135° |
| 2026-05-04 16:46 | 48.15092 | 11.47521 | 2498 ft | 103 kts | 118° |
| 2026-05-04 16:46 | 48.14549 | 11.49489 | 2508 ft | 103 kts | 107° |
| 2026-05-04 16:47 | 48.14445 | 11.51601 | 2517 ft | 103 kts | 82° |
| 2026-05-04 16:47 | 48.14834 | 11.53651 | 2528 ft | 103 kts | 72° |
| 2026-05-04 16:48 | 48.15485 | 11.56693 | 2541 ft | 102 kts | 71° |
| 2026-05-04 16:48 | 48.15709 | 11.57704 | 2543 ft | 103 kts | 71° |
| 2026-05-04 16:49 | 48.16165 | 11.59734 | 2548 ft | 103 kts | 71° |
| 2026-05-04 16:49 | 48.16619 | 11.61769 | 2550 ft | 103 kts | 71° |
| 2026-05-04 16:50 | 48.17075 | 11.63801 | 2552 ft | 103 kts | 71° |
| 2026-05-04 16:50 | 48.17508 | 11.65852 | 2543 ft | 104 kts | 74° |
| 2026-05-04 16:51 | 48.17797 | 11.67968 | 2520 ft | 105 kts | 86° |
| 2026-05-04 16:51 | 48.17819 | 11.69047 | 2533 ft | 103 kts | 88° |
| 2026-05-04 16:51 | 48.17901 | 11.71198 | 2525 ft | 103 kts | 86° |
| 2026-05-04 16:52 | 48.18027 | 11.73348 | 2521 ft | 103 kts | 84° |
| 2026-05-04 16:52 | 48.18109 | 11.74417 | 2520 ft | 103 kts | 83° |
| 2026-05-04 16:53 | 48.18318 | 11.76550 | 2515 ft | 103 kts | 81° |
| 2026-05-04 16:53 | 48.18650 | 11.79738 | 2505 ft | 104 kts | 83° |
| 2026-05-04 16:54 | 48.18838 | 11.80772 | 2500 ft | 104 kts | 61° |
| 2026-05-04 16:55 | 48.21238 | 11.81547 | 2472 ft | 103 kts | 354° |
| 2026-05-04 16:55 | 48.22675 | 11.81326 | 2468 ft | 103 kts | 353° |
| 2026-05-04 16:56 | 48.24107 | 11.81077 | 2462 ft | 104 kts | 353° |
| 2026-05-04 16:56 | 48.26214 | 11.80754 | 2455 ft | 96 kts | 352° |
| 2026-05-04 16:57 | 48.26864 | 11.80607 | 2465 ft | 93 kts | 351° |
| 2026-05-04 16:57 | 48.28142 | 11.80287 | 2456 ft | 91 kts | 350° |
| 2026-05-04 16:58 | 48.30038 | 11.79857 | 2426 ft | 91 kts | 353° |
| 2026-05-04 16:58 | 48.30676 | 11.79747 | 2402 ft | 92 kts | 353° |
| 2026-05-04 16:59 | 48.31927 | 11.79421 | 2385 ft | 92 kts | 338° |
| 2026-05-04 17:00 | 48.32375 | 11.76132 | 2315 ft | 93 kts | 252° |
| 2026-05-04 17:00 | 48.33039 | 11.74157 | 2147 ft | 79 kts | 347° |
| 2026-05-04 17:01 | 48.34042 | 11.74767 | 1773 ft | 90 kts | 68° |
| 2026-05-04 17:01 | 48.34181 | 11.76563 | 1517 ft | 79 kts | 84° |
| 2026-05-04 17:02 | 48.34286 | 11.77981 | 1491 ft | 46 kts | 84° |
| 2026-05-04 17:02 | 48.34330 | 11.78265 | 1490 ft | 8 kts | 47° |
| 2026-05-04 17:03 | 48.34370 | 11.78333 | 1490 ft | 8 kts | 48° |
| 2026-05-04 17:03 | 48.34378 | 11.78345 | 1490 ft | 0 kts | 47° |
| 2026-05-04 17:03 | 48.34378 | 11.78346 | 1490 ft | 0 kts | 47° |
| 2026-05-04 17:04 | 48.34381 | 11.78350 | 1490 ft | 3 kts | 47° |
| 2026-05-04 17:04 | 48.34418 | 11.78410 | 1490 ft | 1 kts | 48° |
| 2026-05-04 17:05 | 48.34440 | 11.78448 | 1490 ft | 6 kts | 48° |
| 2026-05-04 17:05 | 48.34473 | 11.78500 | 1490 ft | 3 kts | 46° |
| 2026-05-04 17:06 | 48.34558 | 11.78637 | 1490 ft | 12 kts | 47° |
| 2026-05-04 17:06 | 48.34596 | 11.78749 | 1490 ft | 12 kts | 84° |
| 2026-05-04 17:07 | 48.34613 | 11.78949 | 1490 ft | 8 kts | 83° |
| 2026-05-04 17:07 | 48.34618 | 11.79000 | 1490 ft | 8 kts | 82° |
| 2026-05-04 17:07 | 48.34628 | 11.79112 | 1490 ft | 9 kts | 82° |
| 2026-05-04 17:07 | 48.34636 | 11.79205 | 1490 ft | 9 kts | 82° |
| 2026-05-04 17:08 | 48.34645 | 11.79302 | 1490 ft | 10 kts | 82° |
| 2026-05-04 17:08 | 48.34662 | 11.79523 | 1490 ft | 13 kts | 83° |
| 2026-05-04 17:08 | 48.34670 | 11.79628 | 1490 ft | 9 kts | 83° |
| 2026-05-04 17:09 | 48.34701 | 11.79687 | 1490 ft | 8 kts | 351° |
| 2026-05-04 17:09 | 48.34747 | 11.79679 | 1490 ft | 8 kts | 353° |
| 2026-05-04 17:09 | 48.34777 | 11.79673 | 1490 ft | 0 kts | 353° |
| 2026-05-04 17:10 | 48.34779 | 11.79673 | 1490 ft | 1 kts | 353° |
| 2026-05-04 17:10 | 48.34886 | 11.79653 | 1490 ft | 11 kts | 353° |
| 2026-05-04 17:11 | 48.34942 | 11.79642 | 1490 ft | 9 kts | 353° |
| 2026-05-04 17:11 | 48.35017 | 11.79628 | 1490 ft | 13 kts | 353° |
| 2026-05-04 17:11 | 48.35086 | 11.79783 | 1490 ft | 9 kts | 84° |
| 2026-05-04 17:12 | 48.35089 | 11.79839 | 1490 ft | 4 kts | 84° |
| 2026-05-04 17:12 | 48.35101 | 11.80013 | 1490 ft | 11 kts | 84° |
| 2026-05-04 17:13 | 48.35114 | 11.80207 | 1490 ft | 0 kts | 84° |
| 2026-05-04 17:14 | 48.35224 | 11.80253 | 1490 ft | 10 kts | 353° |
| 2026-05-04 17:14 | 48.35303 | 11.80239 | 1490 ft | 13 kts | 353° |
| 2026-05-04 17:14 | 48.35461 | 11.80233 | 1490 ft | 5 kts | 84° |
| 2026-05-04 17:15 | 48.35467 | 11.80315 | 1490 ft | 9 kts | 83° |
| 2026-05-04 17:15 | 48.35460 | 11.80441 | 1490 ft | 1 kts | 173° |
| 2026-05-04 17:16 | 48.35368 | 11.80457 | 1490 ft | 7 kts | 172° |
| 2026-05-04 17:16 | 48.35364 | 11.80546 | 1490 ft | 0 kts | 83° |